Nearby METAR Reports

 

KEQY - Monroe, North Carolina, USA
Distance from station: S 11mi, 18km
Updated: Thu, 07/31/2014 7:36pm EDT
Rain, Mist, Overcast
Rain, Mist, Overcast
 Wind from varies
Wind: varies 5 mph , 7 km/h
Temperature: 72°F , 22°C
Dew Point: 68°F , 20°C
Humidity: 88%
Barometer: 30.12 inHg , 1020 hPa
Summary: Rain, Mist
Clouds: Overcast
Visibility: 3 miles , 5 km
Cloud details: Few Clouds 2100 ft
Mostly cloudy 4500 ft
Overcast 5500 ft
2014/07/31 23:36 KEQY 312336Z AUTO VRB04KT 3SM RA BR FEW021 BKN045 OVC055 22/20 A3012 RMK AO2 RAB12 P0007 T02170200
KJQF - Concord Reg Arpt, North Carolina, USA
Distance from station: NNW 16mi, 25km
Updated: Thu, 07/31/2014 6:55pm EDT
Partly cloudy
Partly cloudy
 Wind from N
Wind: N 6 mph , 9 km/h
Temperature: 75°F , 24°C
Dew Point: 70°F , 21°C
Humidity: 83%
Barometer: 30.15 inHg , 1021 hPa
Clouds: Partly cloudy
Visibility: 10 miles , 16 km
Cloud details: Partly cloudy 9000 ft
2014/07/31 22:55 KJQF 312255Z 01005KT 10SM SCT090 24/21 A3015
 
KCLT - Charlotte, North Carolina, USA
Distance from station: W 20mi, 33km
Updated: Thu, 07/31/2014 6:52pm EDT
Overcast
Overcast
 Wind from N
Wind: N 14 mph , 22 km/h, Gust: 21 mph , 33 km/h
Temperature: 73°F , 23°C
Dew Point: 68°F , 20°C
Humidity: 83%
Barometer: 30.11 inHg , 1019.6 hPa
Clouds: Overcast
Visibility: 10 miles , 16 km
Cloud details: Few Clouds 3500 ft
Mostly cloudy 9500 ft
Overcast 14000 ft
2014/07/31 22:52 KCLT 312252Z 01012G18KT 10SM FEW035 BKN095 OVC140 23/20 A3011 RMK AO2 SLP190 T02330200
KUZA - Rock Hill, South Carolina, USA
Distance from station: WSW 29mi, 47km
Updated: Thu, 07/31/2014 7:30pm EDT
Heavy rain, Fog, Overcast
Heavy rain, Fog, Overcast
 Wind from S
Wind: S 10 mph , 17 km/h, Gust: 18 mph , 30 km/h
Temperature: 72°F , 22°C
Dew Point: 70°F , 21°C
Humidity: 94%
Barometer: 30.13 inHg , 1020.3 hPa
Summary: Heavy rain, Fog
Clouds: Overcast
Visibility: 1/4 mile , 2 km
Cloud details: Partly cloudy 1200 ft
Mostly cloudy 2900 ft
Overcast 5000 ft
2014/07/31 23:30 KUZA 312330Z AUTO 17009G16KT 1/4SM +RA FG SCT012 BKN029 OVC050 22/21 A3013 RMK AO2 LTG DSNT SW RAB24 P0027 T02170206
 
KVUJ - Albemarle Stanly, North Carolina, USA
Distance from station: NE 30mi, 48km
Updated: Thu, 07/31/2014 7:15pm EDT
Overcast
Overcast
 Wind from N
Wind: N 5 mph , 7 km/h
Temperature: 73°F , 23°C
Dew Point: 72°F , 22°C
Humidity: 94%
Barometer: 30.17 inHg , 1021.7 hPa
Clouds: Overcast
Visibility: 10 miles , 16 km
Cloud details: Partly cloudy 4200 ft
Partly cloudy 6000 ft
Overcast 8000 ft
2014/07/31 23:15 KVUJ 312315Z AUTO 36004KT 10SM SCT042 SCT060 OVC080 23/22 A3017 RMK AO2 LTG DSNT SE P0001 T02250218
KAFP - Wadesboro/Anson, North Carolina, USA
Distance from station: ESE 31mi, 50km
Updated: Thu, 07/31/2014 7:35pm EDT
Light rain, Overcast
Light rain, Overcast
 Wind from SSE
Wind: SSE 8 mph , 13 km/h
Temperature: 73°F , 23°C
Dew Point: 68°F , 20°C
Humidity: 83%
Barometer: 30.12 inHg , 1020 hPa
Summary: Light rain
Clouds: Overcast
Visibility: 10 miles , 16 km
Cloud details: Partly cloudy 2900 ft
Mostly cloudy 4200 ft
Overcast 11000 ft
2014/07/31 23:35 KAFP 312335Z AUTO 16007KT 130V200 10SM -RA SCT029 BKN042 OVC110 23/20 A3012 RMK AO
 
KAKH - Gastonia, North Carolina, USA
Distance from station: W 31mi, 51km
Updated: Thu, 07/31/2014 6:54pm EDT
Mostly cloudy
Mostly cloudy
 Wind from N
Wind: N 6 mph , 9 km/h
Temperature: 72°F , 22°C
Dew Point: 66°F , 19°C
Humidity: 83%
Barometer: 30.11 inHg , 1019.6 hPa
Clouds: Mostly cloudy
Visibility: 8 miles , 13 km
Cloud details: Mostly cloudy 9500 ft
2014/07/31 22:54 KAKH 312254Z AUTO 01005KT 8SM BKN095 22/19 A3011 RMK AO2 SLP192 T02220194
KRUQ - Salisbury Rowan, North Carolina, USA
Distance from station: N 33mi, 53km
Updated: Thu, 07/31/2014 7:15pm EDT
Mostly cloudy
Mostly cloudy
 Wind from N
Wind: N 5 mph , 7 km/h
Temperature: 73°F , 23°C
Dew Point: 70°F , 21°C
Humidity: 89%
Barometer: 30.14 inHg , 1020.7 hPa
Clouds: Mostly cloudy
Visibility: 10 miles , 16 km
Cloud details: Mostly cloudy 8500 ft
2014/07/31 23:15 KRUQ 312315Z AUTO 36004KT 10SM BKN085 23/21 A3014 RMK AO2 T02330205
 
KLKR - Lancaster, South Carolina, USA
Distance from station: SSW 35mi, 57km
Updated: Thu, 07/31/2014 7:35pm EDT
Light rain, Overcast
Light rain, Overcast
 Wind from ESE
Wind: ESE 7 mph , 11 km/h
Temperature: 68°F , 20°C
Dew Point: 68°F , 20°C
Humidity: 100%
Barometer: 30.13 inHg , 1020.3 hPa
Summary: Light rain
Clouds: Overcast
Visibility: 4 miles , 6 km
Cloud details: Few Clouds 2100 ft
Partly cloudy 2900 ft
Overcast 4600 ft
2014/07/31 23:35 KLKR 312335Z AUTO 11006KT 4SM -RA FEW021 SCT029 OVC046 20/20 A3013 RMK AO2 P0006
KIPJ - Lincolnton, North Carolina, USA
Distance from station: WNW 39mi, 62km
Updated: Thu, 07/31/2014 7:35pm EDT
Overcast
Overcast
 Wind from calm
Wind: Calm
Temperature: 70°F , 21°C
Dew Point: 68°F , 20°C
Humidity: 94%
Barometer: 30.14 inHg , 1020.7 hPa
Clouds: Overcast
Visibility: 7 miles , 11 km
Cloud details: Overcast 9000 ft
2014/07/31 23:35 KIPJ 312335Z AUTO 00000KT 7SM OVC090 21/20 A3014 RMK AO2 T02100195
 
KDCM - Chester Catawba, South Carolina, USA
Distance from station: SW 44mi, 71km
Updated: Thu, 07/31/2014 7:15pm EDT
Rain, Overcast
Rain, Overcast
 Wind from SE
Wind: SE 14 mph , 22 km/h, Gust: 18 mph , 30 km/h
Temperature: 72°F , 22°C
Dew Point: 72°F , 22°C
Humidity: 100%
Barometer: 30.13 inHg , 1020.3 hPa
Summary: Rain
Clouds: Overcast
Visibility: 4 miles , 6 km
Cloud details: Mostly cloudy 500 ft
Overcast 900 ft
2014/07/31 23:15 KDCM 312315Z AUTO 13012G16KT 4SM RA BKN005 OVC009 22/22 A3013 RMK AO2 LTG DSNT SE SW AND NW P0007
KSVH - Statesville, North Carolina, USA
Distance from station: NNW 44mi, 71km
Updated: Thu, 07/31/2014 7:15pm EDT
Overcast
Overcast
 Wind from NW
Wind: NW 3 mph , 6 km/h
Temperature: 72°F , 22°C
Dew Point: 68°F , 20°C
Humidity: 88%
Barometer: 30.13 inHg , 1020.3 hPa
Clouds: Overcast
Visibility: 7 miles , 11 km
Cloud details: Partly cloudy 6500 ft
Overcast 9000 ft
2014/07/31 23:15 KSVH 312315Z AUTO 32003KT 7SM SCT065 OVC090 22/20 A3013 RMK AO2 T02200201
 
KEXX - Davidson Cty Ap, North Carolina, USA
Distance from station: NNE 45mi, 72km
Updated: Thu, 07/31/2014 7:15pm EDT
Overcast
Overcast
 Wind from calm
Wind: Calm
Temperature: 73°F , 23°C
Dew Point: 68°F , 20°C
Humidity: 83%
Barometer: 30.13 inHg , 1020.3 hPa
Clouds: Overcast
Visibility: 10 miles , 16 km
Cloud details: Overcast 9000 ft
2014/07/31 23:15 KEXX 312315Z AUTO 00000KT 10SM OVC090 23/20 A3013 RMK AO2 T02270203
KCQW - Cheraw, South Carolina, USA
Distance from station: SE 49mi, 78km
Updated: Thu, 07/31/2014 7:35pm EDT
Light rain, Overcast
Light rain, Overcast
 Wind from calm
Wind: Calm
Temperature: 70°F , 21°C
Dew Point: 68°F , 20°C
Humidity: 94%
Barometer: 30.13 inHg , 1020.3 hPa
Summary: Light rain
Clouds: Overcast
Visibility: 5 miles , 8 km
Cloud details: Mostly cloudy 2000 ft
Mostly cloudy 2700 ft
Overcast 4300 ft
2014/07/31 23:35 KCQW 312335Z AUTO 00000KT 5SM -RA BKN020 BKN027 OVC043 21/20 A3013 RMK AO2 P0003